createdAt,value
2023-02-06T13:52:27.371Z,1.13
2023-02-06T13:55:40.627Z,1.10
2023-02-06T13:58:42.922Z,0.67
2023-02-06T14:01:32.021Z,1.10
2023-02-06T14:04:02.647Z,1.00
2023-02-06T14:06:50.037Z,1.27
2023-02-06T14:09:45.470Z,1.00
2023-02-06T14:12:39.436Z,1.10
2023-02-06T14:15:24.790Z,1.00
2023-02-06T14:18:24.449Z,1.17
2023-02-06T14:21:03.571Z,1.10
2023-02-06T14:23:52.128Z,1.10
2023-02-06T14:26:33.811Z,1.27
2023-02-06T14:29:20.292Z,1.00
2023-02-06T14:32:25.888Z,1.30
2023-02-06T14:35:13.231Z,0.80
2023-02-06T14:38:15.399Z,0.87
2023-02-06T15:05:28.657Z,1.10
2023-02-06T15:08:04.494Z,0.80
2023-02-06T15:10:39.937Z,0.70
2023-02-06T15:13:25.298Z,1.10
2023-02-06T15:15:59.828Z,1.20
2023-02-06T15:18:29.814Z,1.33
2023-02-06T15:21:06.637Z,1.10
2023-02-06T15:23:55.436Z,1.23
2023-02-06T15:26:33.263Z,1.13
2023-02-06T15:29:04.365Z,1.10
2023-02-06T15:31:33.215Z,1.07
2023-02-06T15:39:52.602Z,0.80
2023-02-06T15:42:24.376Z,0.80
2023-02-06T15:44:53.346Z,0.70
2023-02-06T15:47:23.888Z,0.70
2023-02-06T15:50:00.671Z,0.77
2023-02-06T15:56:34.433Z,0.80
2023-02-06T15:59:07.680Z,0.70
2023-02-06T16:01:40.581Z,0.70
2023-02-06T16:04:15.415Z,0.67
2023-02-06T16:06:44.073Z,0.70
2023-02-06T16:09:23.099Z,0.60
2023-02-06T16:11:54.061Z,0.80
2023-02-06T16:14:32.291Z,0.83
2023-02-06T16:17:04.114Z,0.90
2023-02-06T16:19:49.890Z,0.90
2023-02-06T16:22:25.381Z,0.70
2023-02-06T16:25:12.972Z,1.10
2023-02-06T16:27:46.812Z,1.03
2023-02-06T16:30:28.314Z,0.93
2023-02-06T16:32:59.045Z,0.90
2023-02-06T16:35:28.067Z,0.97
2023-02-06T16:37:57.555Z,0.80
2023-02-06T16:40:27.627Z,0.93
2023-02-06T16:42:56.387Z,1.10
2023-02-06T16:45:28.836Z,1.00
2023-02-06T16:47:58.455Z,1.73
2023-02-06T16:50:27.690Z,1.40
2023-02-06T16:53:04.528Z,1.80
2023-02-06T16:55:34.678Z,1.60
2023-02-06T16:58:03.945Z,1.50
2023-02-06T17:00:34.975Z,1.80
2023-02-06T17:03:04.151Z,1.63
2023-02-06T17:05:35.293Z,1.57
2023-02-06T17:08:05.129Z,1.10
2023-02-06T17:10:34.792Z,1.40
2023-02-06T17:13:03.855Z,0.97
2023-02-06T17:15:34.081Z,1.20
2023-02-06T17:18:03.191Z,1.00
2023-02-06T17:20:33.906Z,1.30
2023-02-06T17:23:03.104Z,1.07
2023-02-06T17:25:32.515Z,1.00
2023-02-06T17:28:03.252Z,1.20
2023-02-06T17:30:33.807Z,1.10
2023-02-06T17:33:02.944Z,1.33
2023-02-06T17:35:32.122Z,1.50
2023-02-06T17:38:01.350Z,1.57
